sensor_id;sensor_type;location;lat;lon;timestamp;pressure;altitude;pressure_sealevel;temperature;humidity
34205;BME280;20471;49.680;20.074;2024-03-17T09:58:35;97550.48;;;12.01;49.16
34205;BME280;20471;49.680;20.074;2024-03-17T10:04:37;97546.09;;;11.36;48.92
34205;BME280;20471;49.680;20.074;2024-03-17T10:07:44;97545.89;;;11.18;49.36
34205;BME280;20471;49.680;20.074;2024-03-17T10:10:54;97545.52;;;11.48;49.67
34205;BME280;20471;49.680;20.074;2024-03-17T10:14:01;97537.36;;;11.88;49.23
34205;BME280;20471;49.680;20.074;2024-03-17T10:16:41;97538.66;;;11.76;47.94
34205;BME280;20471;49.680;20.074;2024-03-17T10:22:32;97532.75;;;11.08;48.25
34205;BME280;20471;49.680;20.074;2024-03-17T10:28:17;97524.05;;;11.61;49.40
34205;BME280;20471;49.680;20.074;2024-03-17T10:31:24;97516.86;;;11.81;48.66
34205;BME280;20471;49.680;20.074;2024-03-17T10:38:15;97515.71;;;11.54;46.75
34205;BME280;20471;49.680;20.074;2024-03-17T10:40:57;97505.31;;;11.34;47.21
34205;BME280;20471;49.680;20.074;2024-03-17T10:44:04;97506.59;;;11.72;47.39
34205;BME280;20471;49.680;20.074;2024-03-17T10:47:13;97506.09;;;11.89;46.42
34205;BME280;20471;49.680;20.074;2024-03-17T10:50:18;97510.55;;;11.65;47.23
34205;BME280;20471;49.680;20.074;2024-03-17T10:53:25;97508.41;;;11.52;46.67
34205;BME280;20471;49.680;20.074;2024-03-17T10:56:34;97510.90;;;10.95;46.77
34205;BME280;20471;49.680;20.074;2024-03-17T10:59:38;97507.09;;;10.70;47.06
34205;BME280;20471;49.680;20.074;2024-03-17T11:02:41;97513.39;;;10.19;46.41
34205;BME280;20471;49.680;20.074;2024-03-17T11:05:54;97508.58;;;9.92;47.12
34205;BME280;20471;49.680;20.074;2024-03-17T11:09:01;97512.36;;;10.26;47.80
34205;BME280;20471;49.680;20.074;2024-03-17T11:18:34;97504.82;;;11.21;47.47
34205;BME280;20471;49.680;20.074;2024-03-17T11:24:38;97496.91;;;12.27;46.15
34205;BME280;20471;49.680;20.074;2024-03-17T11:31:47;97492.98;;;11.87;44.68
34205;BME280;20471;49.680;20.074;2024-03-17T11:37:59;97483.51;;;12.28;44.81
34205;BME280;20471;49.680;20.074;2024-03-17T11:43:51;97478.04;;;12.22;43.38
34205;BME280;20471;49.680;20.074;2024-03-17T11:53:04;97467.05;;;11.63;43.78
34205;BME280;20471;49.680;20.074;2024-03-17T11:56:09;97465.39;;;11.87;44.31
34205;BME280;20471;49.680;20.074;2024-03-17T12:08:39;97449.01;;;12.14;42.11
34205;BME280;20471;49.680;20.074;2024-03-17T12:11:45;97450.91;;;11.62;42.79
34205;BME280;20471;49.680;20.074;2024-03-17T12:14:48;97450.85;;;11.50;43.05
34205;BME280;20471;49.680;20.074;2024-03-17T12:17:46;97444.58;;;11.51;42.61
34205;BME280;20471;49.680;20.074;2024-03-17T12:24:08;97440.90;;;10.95;42.73
34205;BME280;20471;49.680;20.074;2024-03-17T12:27:16;97440.59;;;11.17;42.65
34205;BME280;20471;49.680;20.074;2024-03-17T12:30:19;97438.61;;;11.51;42.46
34205;BME280;20471;49.680;20.074;2024-03-17T12:33:05;97435.05;;;12.09;42.78
34205;BME280;20471;49.680;20.074;2024-03-17T12:39:40;97425.17;;;12.93;41.35
34205;BME280;20471;49.680;20.074;2024-03-17T12:47:54;97424.79;;;13.09;41.29
34205;BME280;20471;49.680;20.074;2024-03-17T12:50:52;97424.11;;;13.32;40.93
34205;BME280;20471;49.680;20.074;2024-03-17T12:53:28;97420.36;;;13.38;40.10
34205;BME280;20471;49.680;20.074;2024-03-17T12:56:31;97416.85;;;13.54;40.33
34205;BME280;20471;49.680;20.074;2024-03-17T12:59:57;97414.81;;;13.69;39.83
34205;BME280;20471;49.680;20.074;2024-03-17T13:03:10;97415.56;;;13.60;38.79
34205;BME280;20471;49.680;20.074;2024-03-17T13:06:09;97418.32;;;13.44;39.61
34205;BME280;20471;49.680;20.074;2024-03-17T13:09:17;97416.17;;;13.49;39.44
34205;BME280;20471;49.680;20.074;2024-03-17T13:15:43;97414.70;;;13.87;38.77
34205;BME280;20471;49.680;20.074;2024-03-17T13:18:29;97409.89;;;13.76;37.94
34205;BME280;20471;49.680;20.074;2024-03-17T13:21:37;97410.85;;;13.77;38.66
34205;BME280;20471;49.680;20.074;2024-03-17T13:24:44;97414.16;;;14.13;38.72
34205;BME280;20471;49.680;20.074;2024-03-17T13:27:51;97407.92;;;14.39;38.47
34205;BME280;20471;49.680;20.074;2024-03-17T13:33:55;97402.27;;;14.55;37.76
34205;BME280;20471;49.680;20.074;2024-03-17T13:36:29;97406.29;;;14.76;37.73
34205;BME280;20471;49.680;20.074;2024-03-17T13:39:19;97402.31;;;14.76;37.63
34205;BME280;20471;49.680;20.074;2024-03-17T13:42:06;97394.82;;;14.81;36.77
34205;BME280;20471;49.680;20.074;2024-03-17T13:45:15;97397.20;;;14.83;37.29
34205;BME280;20471;49.680;20.074;2024-03-17T13:48:04;97402.66;;;15.14;37.23
34205;BME280;20471;49.680;20.074;2024-03-17T13:53:51;97396.02;;;15.31;36.35
34205;BME280;20471;49.680;20.074;2024-03-17T13:56:59;97393.61;;;15.46;36.19
34205;BME280;20471;49.680;20.074;2024-03-17T14:00:08;97388.36;;;14.90;35.71
34205;BME280;20471;49.680;20.074;2024-03-17T14:03:04;97385.46;;;14.56;36.02
34205;BME280;20471;49.680;20.074;2024-03-17T14:05:56;97380.73;;;14.61;36.10
34205;BME280;20471;49.680;20.074;2024-03-17T14:11:51;97384.42;;;14.31;35.09
34205;BME280;20471;49.680;20.074;2024-03-17T14:14:48;97382.30;;;14.39;35.97
34205;BME280;20471;49.680;20.074;2024-03-17T14:17:31;97383.11;;;14.20;35.53
34205;BME280;20471;49.680;20.074;2024-03-17T14:23:25;97383.19;;;14.27;35.19
34205;BME280;20471;49.680;20.074;2024-03-17T14:28:56;97377.39;;;14.32;35.53
34205;BME280;20471;49.680;20.074;2024-03-17T14:31:46;97374.29;;;14.48;35.46
34205;BME280;20471;49.680;20.074;2024-03-17T14:34:43;97376.17;;;14.49;35.31
34205;BME280;20471;49.680;20.074;2024-03-17T14:37:19;97373.65;;;14.45;35.37
34205;BME280;20471;49.680;20.074;2024-03-17T14:40:19;97377.23;;;14.32;34.25
34205;BME280;20471;49.680;20.074;2024-03-17T14:43:28;97377.92;;;13.80;34.88
34205;BME280;20471;49.680;20.074;2024-03-17T14:49:41;97371.84;;;13.92;35.95
34205;BME280;20471;49.680;20.074;2024-03-17T14:52:47;97372.59;;;13.87;35.37
34205;BME280;20471;49.680;20.074;2024-03-17T14:55:46;97374.59;;;13.62;35.28
34205;BME280;20471;49.680;20.074;2024-03-17T14:58:43;97374.63;;;13.49;35.64
34205;BME280;20471;49.680;20.074;2024-03-17T15:01:50;97374.32;;;13.42;35.75
34205;BME280;20471;49.680;20.074;2024-03-17T15:04:39;97376.10;;;13.21;35.66
34205;BME280;20471;49.680;20.074;2024-03-17T15:07:47;97373.67;;;13.07;35.87
34205;BME280;20471;49.680;20.074;2024-03-17T15:10:38;97369.05;;;12.94;36.00
34205;BME280;20471;49.680;20.074;2024-03-17T15:13:30;97368.92;;;12.92;36.01
34205;BME280;20471;49.680;20.074;2024-03-17T15:16:38;97368.52;;;12.76;35.96
34205;BME280;20471;49.680;20.074;2024-03-17T15:19:38;97371.07;;;12.54;36.12
34205;BME280;20471;49.680;20.074;2024-03-17T15:22:49;97378.52;;;12.47;36.62
34205;BME280;20471;49.680;20.074;2024-03-17T15:25:46;97375.17;;;12.40;36.53
34205;BME280;20471;49.680;20.074;2024-03-17T15:37:43;97379.27;;;11.46;36.14
34205;BME280;20471;49.680;20.074;2024-03-17T15:40:48;97377.74;;;11.14;36.69
34205;BME280;20471;49.680;20.074;2024-03-17T15:43:17;97377.38;;;10.94;36.95
34205;BME280;20471;49.680;20.074;2024-03-17T15:45:44;97378.23;;;10.79;37.15
34205;BME280;20471;49.680;20.074;2024-03-17T15:48:34;97372.91;;;10.66;37.45
34205;BME280;20471;49.680;20.074;2024-03-17T15:51:41;97370.52;;;10.48;37.64
34205;BME280;20471;49.680;20.074;2024-03-17T15:54:48;97373.02;;;10.27;37.90
34205;BME280;20471;49.680;20.074;2024-03-17T15:57:55;97375.71;;;10.22;38.11
34205;BME280;20471;49.680;20.074;2024-03-17T16:01:04;97379.09;;;10.14;38.64
34205;BME280;20471;49.680;20.074;2024-03-17T16:12:36;97387.14;;;9.41;40.45
34205;BME280;20471;49.680;20.074;2024-03-17T16:15:07;97388.70;;;9.17;41.02
34205;BME280;20471;49.680;20.074;2024-03-17T16:17:45;97385.07;;;9.09;41.09
34205;BME280;20471;49.680;20.074;2024-03-17T16:27:18;97386.09;;;9.07;41.62
34205;BME280;20471;49.680;20.074;2024-03-17T16:30:08;97388.31;;;9.00;41.60
34205;BME280;20471;49.680;20.074;2024-03-17T16:32:49;97391.15;;;8.92;41.86
34205;BME280;20471;49.680;20.074;2024-03-17T16:35:36;97393.42;;;8.84;42.04
34205;BME280;20471;49.680;20.074;2024-03-17T16:41:17;97397.83;;;8.66;43.50
34205;BME280;20471;49.680;20.074;2024-03-17T16:44:20;97396.65;;;8.55;43.73
34205;BME280;20471;49.680;20.074;2024-03-17T16:47:55;97397.70;;;8.39;44.20
34205;BME280;20471;49.680;20.074;2024-03-17T16:50:05;97400.43;;;8.11;45.06
34205;BME280;20471;49.680;20.074;2024-03-17T16:58:16;97417.14;;;7.68;46.47
34205;BME280;20471;49.680;20.074;2024-03-17T17:01:24;97413.88;;;7.64;47.28
34205;BME280;20471;49.680;20.074;2024-03-17T17:03:51;97412.67;;;7.57;48.17
34205;BME280;20471;49.680;20.074;2024-03-17T17:06:41;97411.67;;;7.44;48.61
34205;BME280;20471;49.680;20.074;2024-03-17T17:09:36;97411.74;;;7.28;49.17
34205;BME280;20471;49.680;20.074;2024-03-17T17:12:35;97408.69;;;7.12;49.02
34205;BME280;20471;49.680;20.074;2024-03-17T17:15:42;97412.71;;;6.99;49.04
34205;BME280;20471;49.680;20.074;2024-03-17T17:21:33;97417.91;;;6.78;49.95
34205;BME280;20471;49.680;20.074;2024-03-17T17:24:41;97419.52;;;6.69;50.48
34205;BME280;20471;49.680;20.074;2024-03-17T17:29:59;97423.56;;;6.54;50.79
34205;BME280;20471;49.680;20.074;2024-03-17T17:33:07;97429.49;;;6.46;50.95
34205;BME280;20471;49.680;20.074;2024-03-17T17:35:46;97428.77;;;6.31;51.28
34205;BME280;20471;49.680;20.074;2024-03-17T17:38:16;97429.52;;;6.21;51.50
34205;BME280;20471;49.680;20.074;2024-03-17T17:41:23;97430.22;;;6.18;51.80
34205;BME280;20471;49.680;20.074;2024-03-17T17:43:53;97430.27;;;6.15;52.29
34205;BME280;20471;49.680;20.074;2024-03-17T17:47:01;97428.83;;;6.10;52.19
34205;BME280;20471;49.680;20.074;2024-03-17T17:49:30;97431.63;;;6.09;52.73
34205;BME280;20471;49.680;20.074;2024-03-17T17:52:17;97427.38;;;6.07;52.60
34205;BME280;20471;49.680;20.074;2024-03-17T17:54:44;97423.17;;;6.10;52.59
34205;BME280;20471;49.680;20.074;2024-03-17T18:00:00;97416.63;;;6.11;53.08
34205;BME280;20471;49.680;20.074;2024-03-17T18:02:32;97421.02;;;6.11;53.41
34205;BME280;20471;49.680;20.074;2024-03-17T18:05:04;97419.76;;;6.10;53.64
34205;BME280;20471;49.680;20.074;2024-03-17T18:07:34;97422.02;;;6.01;53.17
34205;BME280;20471;49.680;20.074;2024-03-17T18:10:41;97421.88;;;5.94;53.85
34205;BME280;20471;49.680;20.074;2024-03-17T18:16:26;97422.41;;;5.86;53.94
34205;BME280;20471;49.680;20.074;2024-03-17T18:19:23;97428.80;;;5.87;54.63
34205;BME280;20471;49.680;20.074;2024-03-17T18:22:12;97430.66;;;5.94;54.92
34205;BME280;20471;49.680;20.074;2024-03-17T18:24:42;97427.17;;;5.99;55.04
34205;BME280;20471;49.680;20.074;2024-03-17T18:30:33;97434.17;;;5.91;54.85
34205;BME280;20471;49.680;20.074;2024-03-17T18:33:02;97433.57;;;5.76;53.85
34205;BME280;20471;49.680;20.074;2024-03-17T18:36:10;97435.83;;;5.69;53.57
34205;BME280;20471;49.680;20.074;2024-03-17T18:38:37;97433.95;;;5.67;53.47
34205;BME280;20471;49.680;20.074;2024-03-17T18:41:45;97436.72;;;5.71;53.55
34205;BME280;20471;49.680;20.074;2024-03-17T18:53:14;97437.99;;;5.77;53.39
34205;BME280;20471;49.680;20.074;2024-03-17T18:55:42;97437.03;;;5.76;53.40
34205;BME280;20471;49.680;20.074;2024-03-17T18:58:13;97443.67;;;5.74;53.42
34205;BME280;20471;49.680;20.074;2024-03-17T19:01:01;97439.54;;;5.64;53.22
34205;BME280;20471;49.680;20.074;2024-03-17T19:04:09;97440.02;;;5.66;53.34
34205;BME280;20471;49.680;20.074;2024-03-17T19:06:48;97440.92;;;5.73;53.29
34205;BME280;20471;49.680;20.074;2024-03-17T19:09:37;97443.59;;;5.75;53.27
34205;BME280;20471;49.680;20.074;2024-03-17T19:12:45;97445.91;;;5.66;53.32
34205;BME280;20471;49.680;20.074;2024-03-17T19:15:14;97447.04;;;5.55;53.64
34205;BME280;20471;49.680;20.074;2024-03-17T19:18:01;97444.33;;;5.51;53.74
34205;BME280;20471;49.680;20.074;2024-03-17T19:21:10;97447.51;;;5.49;53.82
34205;BME280;20471;49.680;20.074;2024-03-17T19:26:48;97450.83;;;5.58;53.45
34205;BME280;20471;49.680;20.074;2024-03-17T19:32:20;97449.48;;;5.51;53.68
34205;BME280;20471;49.680;20.074;2024-03-17T19:35:10;97452.27;;;5.53;53.69
34205;BME280;20471;49.680;20.074;2024-03-17T19:38:19;97449.21;;;5.50;54.05
34205;BME280;20471;49.680;20.074;2024-03-17T19:41:35;97450.91;;;5.44;53.98
34205;BME280;20471;49.680;20.074;2024-03-17T19:44:04;97449.59;;;5.47;53.66
34205;BME280;20471;49.680;20.074;2024-03-17T19:46:59;97451.73;;;5.47;53.67
34205;BME280;20471;49.680;20.074;2024-03-17T19:49:31;97448.20;;;5.44;53.73
34205;BME280;20471;49.680;20.074;2024-03-17T19:57:40;97448.22;;;5.43;53.60
34205;BME280;20471;49.680;20.074;2024-03-17T20:00:31;97450.17;;;5.44;53.57
34205;BME280;20471;49.680;20.074;2024-03-17T20:02:58;97449.43;;;5.47;53.70
34205;BME280;20471;49.680;20.074;2024-03-17T20:05:48;97451.89;;;5.48;53.72
34205;BME280;20471;49.680;20.074;2024-03-17T20:08:19;97456.02;;;5.45;53.61
34205;BME280;20471;49.680;20.074;2024-03-17T20:10:47;97452.35;;;5.43;53.73
34205;BME280;20471;49.680;20.074;2024-03-17T20:13:47;97450.11;;;5.42;53.69
34205;BME280;20471;49.680;20.074;2024-03-17T20:16:56;97449.58;;;5.42;53.65
34205;BME280;20471;49.680;20.074;2024-03-17T20:19:25;97447.32;;;5.38;53.62
34205;BME280;20471;49.680;20.074;2024-03-17T20:21:51;97443.87;;;5.30;53.33
34205;BME280;20471;49.680;20.074;2024-03-17T20:24:59;97443.02;;;5.25;53.29
34205;BME280;20471;49.680;20.074;2024-03-17T20:28:10;97440.98;;;5.24;53.46
34205;BME280;20471;49.680;20.074;2024-03-17T20:31:05;97440.74;;;5.24;53.31
34205;BME280;20471;49.680;20.074;2024-03-17T20:36:20;97435.73;;;5.24;53.15
34205;BME280;20471;49.680;20.074;2024-03-17T20:38:47;97430.81;;;5.24;53.01
34205;BME280;20471;49.680;20.074;2024-03-17T20:41:14;97428.41;;;5.18;52.84
34205;BME280;20471;49.680;20.074;2024-03-17T20:46:29;97429.98;;;5.14;52.90
34205;BME280;20471;49.680;20.074;2024-03-17T20:49:27;97425.80;;;5.13;52.94
34205;BME280;20471;49.680;20.074;2024-03-17T20:51:56;97423.15;;;5.09;53.17
34205;BME280;20471;49.680;20.074;2024-03-17T20:54:23;97421.05;;;5.05;52.89
34205;BME280;20471;49.680;20.074;2024-03-17T20:56:49;97419.70;;;5.06;52.89
34205;BME280;20471;49.680;20.074;2024-03-17T20:59:19;97419.94;;;5.05;53.11
34205;BME280;20471;49.680;20.074;2024-03-17T21:02:06;97420.23;;;5.04;53.53
34205;BME280;20471;49.680;20.074;2024-03-17T21:08:03;97417.46;;;4.98;53.38
34205;BME280;20471;49.680;20.074;2024-03-17T21:10:31;97418.23;;;4.95;53.68
34205;BME280;20471;49.680;20.074;2024-03-17T21:15:49;97407.48;;;4.87;54.30
34205;BME280;20471;49.680;20.074;2024-03-17T21:18:16;97408.10;;;4.80;54.16
34205;BME280;20471;49.680;20.074;2024-03-17T21:21:24;97405.21;;;4.76;54.10
34205;BME280;20471;49.680;20.074;2024-03-17T21:23:50;97400.81;;;4.75;54.02
34205;BME280;20471;49.680;20.074;2024-03-17T21:26:19;97397.86;;;4.74;54.08
34205;BME280;20471;49.680;20.074;2024-03-17T21:28:51;97397.90;;;4.69;54.22
34205;BME280;20471;49.680;20.074;2024-03-17T21:31:19;97397.12;;;4.63;54.33
34205;BME280;20471;49.680;20.074;2024-03-17T21:34:18;97394.73;;;4.61;54.28
34205;BME280;20471;49.680;20.074;2024-03-17T21:36:44;97393.81;;;4.57;54.09
34205;BME280;20471;49.680;20.074;2024-03-17T21:39:10;97386.23;;;4.56;53.90
34205;BME280;20471;49.680;20.074;2024-03-17T21:41:37;97388.62;;;4.57;53.97
34205;BME280;20471;49.680;20.074;2024-03-17T21:44:06;97388.04;;;4.60;53.90
34205;BME280;20471;49.680;20.074;2024-03-17T21:47:14;97389.86;;;4.61;53.90
34205;BME280;20471;49.680;20.074;2024-03-17T21:49:52;97391.13;;;4.64;54.08
34205;BME280;20471;49.680;20.074;2024-03-17T21:52:21;97387.65;;;4.67;54.03
34205;BME280;20471;49.680;20.074;2024-03-17T21:54:51;97387.27;;;4.67;54.40
34205;BME280;20471;49.680;20.074;2024-03-17T21:57:59;97388.42;;;4.65;54.40
34205;BME280;20471;49.680;20.074;2024-03-17T22:00:36;97386.48;;;4.63;54.35
34205;BME280;20471;49.680;20.074;2024-03-17T22:03:23;97385.45;;;4.61;54.39
34205;BME280;20471;49.680;20.074;2024-03-17T22:06:23;97380.70;;;4.56;54.45
34205;BME280;20471;49.680;20.074;2024-03-17T22:09:09;97374.75;;;4.50;54.52
34205;BME280;20471;49.680;20.074;2024-03-17T22:12:00;97375.38;;;4.51;54.53
34205;BME280;20471;49.680;20.074;2024-03-17T22:14:25;97369.80;;;4.53;54.50
34205;BME280;20471;49.680;20.074;2024-03-17T22:17:05;97367.99;;;4.53;54.55
34205;BME280;20471;49.680;20.074;2024-03-17T22:20:13;97367.73;;;4.49;54.70
34205;BME280;20471;49.680;20.074;2024-03-17T22:22:39;97367.84;;;4.46;54.80
34205;BME280;20471;49.680;20.074;2024-03-17T22:26:11;97368.75;;;4.46;54.85
34205;BME280;20471;49.680;20.074;2024-03-17T22:28:28;97363.34;;;4.41;55.01
34205;BME280;20471;49.680;20.074;2024-03-17T22:31:19;97360.38;;;4.38;55.17
34205;BME280;20471;49.680;20.074;2024-03-17T22:40:08;97358.27;;;4.35;55.64
34205;BME280;20471;49.680;20.074;2024-03-17T22:43:15;97355.10;;;4.35;55.72
34205;BME280;20471;49.680;20.074;2024-03-17T22:46:22;97357.09;;;4.33;55.87
34205;BME280;20471;49.680;20.074;2024-03-17T22:54:14;97360.58;;;4.29;56.33
34205;BME280;20471;49.680;20.074;2024-03-17T22:57:22;97360.31;;;4.29;56.34
34205;BME280;20471;49.680;20.074;2024-03-17T22:59:50;97352.33;;;4.22;56.78
34205;BME280;20471;49.680;20.074;2024-03-17T23:02:37;97353.41;;;4.19;56.70
34205;BME280;20471;49.680;20.074;2024-03-17T23:05:09;97357.73;;;4.17;56.86
34205;BME280;20471;49.680;20.074;2024-03-17T23:07:46;97351.64;;;4.08;57.27
34205;BME280;20471;49.680;20.074;2024-03-17T23:10:12;97356.66;;;3.92;57.62
34205;BME280;20471;49.680;20.074;2024-03-17T23:12:40;97355.85;;;3.80;57.78
34205;BME280;20471;49.680;20.074;2024-03-17T23:15:09;97355.48;;;3.77;57.94
34205;BME280;20471;49.680;20.074;2024-03-17T23:17:38;97352.71;;;3.79;57.84
34205;BME280;20471;49.680;20.074;2024-03-17T23:20:05;97346.14;;;3.81;57.91
34205;BME280;20471;49.680;20.074;2024-03-17T23:22:35;97348.25;;;3.81;57.93
34205;BME280;20471;49.680;20.074;2024-03-17T23:25:43;97343.04;;;3.80;58.26
34205;BME280;20471;49.680;20.074;2024-03-17T23:28:10;97344.23;;;3.74;58.15
34205;BME280;20471;49.680;20.074;2024-03-17T23:30:38;97343.89;;;3.74;58.04
34205;BME280;20471;49.680;20.074;2024-03-17T23:33:09;97346.23;;;3.77;58.15
34205;BME280;20471;49.680;20.074;2024-03-17T23:36:17;97347.94;;;3.79;58.26
34205;BME280;20471;49.680;20.074;2024-03-17T23:38:46;97347.11;;;3.80;58.29
34205;BME280;20471;49.680;20.074;2024-03-17T23:41:16;97344.77;;;3.77;58.45
34205;BME280;20471;49.680;20.074;2024-03-17T23:43:43;97344.09;;;3.70;58.53
34205;BME280;20471;49.680;20.074;2024-03-17T23:46:19;97339.63;;;3.67;58.65
34205;BME280;20471;49.680;20.074;2024-03-17T23:49:27;97339.80;;;3.63;58.86
34205;BME280;20471;49.680;20.074;2024-03-17T23:52:34;97336.61;;;3.61;58.99
34205;BME280;20471;49.680;20.074;2024-03-17T23:55:04;97330.48;;;3.60;58.90
34205;BME280;20471;49.680;20.074;2024-03-17T23:57:31;97327.58;;;3.59;58.98
